Time;durP1;ratioP1;P1;durP2;ratioP2;P2;SDS_P1;SDS_P2;PMS_P1;PMS_P2;Temp;Humidity;BMP_temperature;BMP_pressure;BME280_temperature;BME280_humidity;BME280_pressure;Samples;Min_cycle;Max_cycle;Signal;HPM_P1;HPM_P2
2023/03/30 00:00:43;;;;;;;19.10;12.90;;;;;;;;;;5074439;28;20040;-76
2023/03/30 00:03:09;;;;;;;21.33;13.40;;;;;;;;;;5072697;28;20047;-76
2023/03/30 00:05:37;;;;;;;18.25;13.27;;;;;;;;;;5074881;28;20098;-76
2023/03/30 00:08:03;;;;;;;18.13;13.20;;;;;;;;;;5074788;28;20083;-77
2023/03/30 00:10:29;;;;;;;19.13;13.07;;;;;;;;;;5074100;28;20145;-77
2023/03/30 00:12:56;;;;;;;18.00;12.63;;;;;;;;;;5074605;28;20467;-77
2023/03/30 00:15:23;;;;;;;20.90;13.68;;;;;;;;;;5074920;28;20048;-77
2023/03/30 00:17:53;;;;;;;19.85;13.40;;;;;;;;;;5074866;28;20076;-77
2023/03/30 00:20:20;;;;;;;18.35;12.70;;;;;;;;;;5078430;28;20447;-77
2023/03/30 00:22:46;;;;;;;18.42;12.55;;;;;;;;;;5079512;28;20048;-77
2023/03/30 00:25:16;;;;;;;14.65;11.98;;;;;;;;;;5075888;28;20072;-77
2023/03/30 00:27:42;;;;;;;15.60;11.93;;;;;;;;;;5074319;28;20048;-77
2023/03/30 00:30:14;;;;;;;15.57;11.85;;;;;;;;;;5074065;28;20041;-77
2023/03/30 00:32:40;;;;;;;15.27;11.50;;;;;;;;;;5073534;28;20053;-77
2023/03/30 00:35:06;;;;;;;17.75;11.63;;;;;;;;;;5073994;28;20072;-77
2023/03/30 00:37:36;;;;;;;13.45;10.35;;;;;;;;;;5074040;28;20055;-77
2023/03/30 00:40:03;;;;;;;15.35;11.23;;;;;;;;;;5072497;28;20055;-78
2023/03/30 00:42:29;;;;;;;16.35;10.88;;;;;;;;;;5073914;28;20052;-78
2023/03/30 00:45:15;;;;;;;19.80;10.70;;;;;;;;;;5067147;28;20098;-77
2023/03/30 00:47:43;;;;;;;13.65;10.32;;;;;;;;;;5073679;28;20402;-77
2023/03/30 00:50:09;;;;;;;13.70;9.80;;;;;;;;;;5073849;28;20048;-77
2023/03/30 00:52:36;;;;;;;14.73;9.90;;;;;;;;;;5074259;28;20047;-77
2023/03/30 00:55:04;;;;;;;14.90;9.52;;;;;;;;;;5073729;28;20045;-77
2023/03/30 00:57:31;;;;;;;14.35;9.63;;;;;;;;;;5073661;28;20036;-77
2023/03/30 00:59:57;;;;;;;11.82;9.43;;;;;;;;;;5073696;28;20048;-77
2023/03/30 01:02:23;;;;;;;13.48;9.43;;;;;;;;;;5073622;28;20132;-77
2023/03/30 01:04:52;;;;;;;13.40;9.52;;;;;;;;;;5055471;28;20044;-77
2023/03/30 01:07:18;;;;;;;12.88;8.95;;;;;;;;;;5073198;28;20441;-77
2023/03/30 01:09:45;;;;;;;14.10;9.48;;;;;;;;;;5073951;28;20044;-77
2023/03/30 01:12:11;;;;;;;13.75;9.02;;;;;;;;;;5073546;28;20554;-77
2023/03/30 01:14:37;;;;;;;13.98;9.52;;;;;;;;;;5073441;28;20044;-77
2023/03/30 01:17:15;;;;;;;14.05;8.50;;;;;;;;;;5073413;28;20051;-77
2023/03/30 01:19:53;;;;;;;12.60;8.88;;;;;;;;;;5074158;28;20045;-77
2023/03/30 01:22:39;;;;;;;13.52;8.88;;;;;;;;;;5073019;28;20426;-76
2023/03/30 01:25:28;;;;;;;14.65;9.32;;;;;;;;;;5073128;28;20048;-76
2023/03/30 01:28:06;;;;;;;14.10;8.73;;;;;;;;;;5073723;28;20044;-76
2023/03/30 01:30:32;;;;;;;14.60;8.77;;;;;;;;;;5073482;28;20051;-77
2023/03/30 01:33:08;;;;;;;12.68;8.07;;;;;;;;;;5073465;28;20052;-78
2023/03/30 01:35:53;;;;;;;11.07;8.57;;;;;;;;;;5072755;28;20463;-78
2023/03/30 01:38:37;;;;;;;13.07;7.85;;;;;;;;;;5073506;28;20049;-77
2023/03/30 01:41:21;;;;;;;14.57;8.07;;;;;;;;;;5073303;28;20478;-77
2023/03/30 01:44:00;;;;;;;11.93;8.02;;;;;;;;;;5074592;28;20118;-77
2023/03/30 01:46:29;;;;;;;12.25;8.02;;;;;;;;;;5077044;28;20387;-77
2023/03/30 01:48:55;;;;;;;11.40;7.93;;;;;;;;;;5057335;28;20044;-77
2023/03/30 01:51:31;;;;;;;13.38;8.27;;;;;;;;;;5057113;28;20487;-77
2023/03/30 01:54:01;;;;;;;13.60;7.57;;;;;;;;;;5076130;28;20045;-77
2023/03/30 01:56:45;;;;;;;12.60;8.05;;;;;;;;;;5076994;28;20052;-77
2023/03/30 01:59:32;;;;;;;15.20;8.40;;;;;;;;;;5075830;28;20040;-77
2023/03/30 02:02:01;;;;;;;12.63;8.00;;;;;;;;;;5076626;28;20501;-77
2023/03/30 02:04:29;;;;;;;11.95;8.05;;;;;;;;;;5070013;28;20040;-77
2023/03/30 02:06:58;;;;;;;10.52;7.38;;;;;;;;;;5055545;28;20056;-77
2023/03/30 02:09:25;;;;;;;11.38;7.30;;;;;;;;;;5056695;28;20041;-77
2023/03/30 02:11:52;;;;;;;9.43;6.90;;;;;;;;;;5056741;28;20056;-77
2023/03/30 02:14:22;;;;;;;8.05;6.13;;;;;;;;;;5056271;28;20049;-77
2023/03/30 02:16:50;;;;;;;11.18;6.72;;;;;;;;;;5056931;28;20106;-77
2023/03/30 02:19:16;;;;;;;10.40;6.72;;;;;;;;;;5056529;28;20106;-77
2023/03/30 02:21:42;;;;;;;9.23;5.65;;;;;;;;;;5056329;28;20406;-77
2023/03/30 02:24:16;;;;;;;10.70;5.90;;;;;;;;;;5056242;28;20053;-77
2023/03/30 02:26:45;;;;;;;11.52;6.50;;;;;;;;;;5056174;28;20407;-77
2023/03/30 02:29:11;;;;;;;10.07;5.85;;;;;;;;;;5056374;28;20068;-77
2023/03/30 02:31:37;;;;;;;11.15;5.78;;;;;;;;;;5056546;28;20045;-77
2023/03/30 02:34:09;;;;;;;11.73;5.70;;;;;;;;;;5055016;28;20127;-77
2023/03/30 02:36:36;;;;;;;9.48;5.57;;;;;;;;;;5056253;28;20120;-77
2023/03/30 02:39:05;;;;;;;11.02;6.55;;;;;;;;;;5064973;28;20075;-77
2023/03/30 02:41:45;;;;;;;9.30;5.53;;;;;;;;;;5076279;28;20044;-77
2023/03/30 02:44:17;;;;;;;11.77;5.53;;;;;;;;;;5076188;28;20043;-77
2023/03/30 02:47:02;;;;;;;11.05;5.57;;;;;;;;;;5076115;28;20037;-78
2023/03/30 02:49:28;;;;;;;9.15;5.57;;;;;;;;;;5074498;28;20044;-78
2023/03/30 02:51:54;;;;;;;7.30;5.32;;;;;;;;;;5075980;28;20048;-78
2023/03/30 02:54:33;;;;;;;9.60;5.25;;;;;;;;;;5075948;28;20078;-78
2023/03/30 02:57:07;;;;;;;10.32;4.68;;;;;;;;;;5055435;28;20049;-78
2023/03/30 02:59:44;;;;;;;13.45;5.45;;;;;;;;;;5055953;28;20052;-78
2023/03/30 03:02:18;;;;;;;8.35;4.90;;;;;;;;;;5055885;28;20096;-78
2023/03/30 03:04:45;;;;;;;7.43;4.45;;;;;;;;;;5055714;28;20128;-78
2023/03/30 03:07:12;;;;;;;9.77;5.03;;;;;;;;;;5055820;28;20080;-78
2023/03/30 03:09:38;;;;;;;12.05;5.28;;;;;;;;;;5055811;28;20107;-77
2023/03/30 03:12:05;;;;;;;12.05;4.95;;;;;;;;;;5067983;28;20127;-77
2023/03/30 03:14:31;;;;;;;16.10;5.28;;;;;;;;;;5075582;28;20052;-77
2023/03/30 03:16:57;;;;;;;11.13;4.97;;;;;;;;;;5075986;28;20596;-77
2023/03/30 03:19:23;;;;;;;8.98;4.78;;;;;;;;;;5075134;28;20491;-77
2023/03/30 03:21:50;;;;;;;9.65;5.07;;;;;;;;;;5075562;28;20124;-77
2023/03/30 03:24:17;;;;;;;8.38;5.05;;;;;;;;;;5075471;28;20052;-77
2023/03/30 03:26:44;;;;;;;11.40;5.28;;;;;;;;;;5075378;28;20040;-78
2023/03/30 03:29:10;;;;;;;10.23;5.28;;;;;;;;;;5075537;28;20048;-77
2023/03/30 03:31:36;;;;;;;10.43;5.60;;;;;;;;;;5075918;28;20053;-77
2023/03/30 03:34:02;;;;;;;12.68;5.65;;;;;;;;;;5079901;28;20044;-77
2023/03/30 03:36:29;;;;;;;8.93;5.38;;;;;;;;;;5079792;28;20458;-77
2023/03/30 03:38:56;;;;;;;10.10;5.78;;;;;;;;;;5075519;28;20044;-77
2023/03/30 03:41:22;;;;;;;10.07;5.10;;;;;;;;;;5075373;28;20127;-77
2023/03/30 03:43:48;;;;;;;11.57;5.35;;;;;;;;;;5075384;28;20127;-77
2023/03/30 03:46:14;;;;;;;9.20;5.10;;;;;;;;;;5074734;28;20470;-77
2023/03/30 03:48:40;;;;;;;10.95;4.97;;;;;;;;;;5075129;28;20083;-77
2023/03/30 03:51:07;;;;;;;12.57;5.45;;;;;;;;;;5075085;28;20084;-77
2023/03/30 03:53:33;;;;;;;12.15;5.85;;;;;;;;;;5074806;28;20173;-77
2023/03/30 03:55:59;;;;;;;10.80;5.05;;;;;;;;;;5074683;28;20106;-77
2023/03/30 04:02:12;;;;;;;11.52;5.13;;;;;;;;;;5054861;28;20048;-77
2023/03/30 04:04:38;;;;;;;13.95;6.25;;;;;;;;;;5073213;28;20589;-77
2023/03/30 04:07:04;;;;;;;14.57;5.55;;;;;;;;;;5068673;28;20048;-78
2023/03/30 04:09:30;;;;;;;13.13;6.30;;;;;;;;;;5065925;28;20402;-78
2023/03/30 04:15:07;;;;;;;14.38;6.38;;;;;;;;;;5072711;28;20127;-78
2023/03/30 04:17:34;;;;;;;11.13;6.05;;;;;;;;;;5073499;28;20149;-78
2023/03/30 04:20:04;;;;;;;11.90;6.50;;;;;;;;;;5074438;28;20052;-78
2023/03/30 04:22:32;;;;;;;16.45;6.15;;;;;;;;;;5074473;28;20037;-78
2023/03/30 04:25:03;;;;;;;14.15;5.90;;;;;;;;;;5054458;28;20502;-78
2023/03/30 04:27:29;;;;;;;18.17;6.55;;;;;;;;;;5054363;28;20119;-78
2023/03/30 04:29:56;;;;;;;14.13;5.95;;;;;;;;;;5054308;28;20079;-78
2023/03/30 04:32:23;;;;;;;13.48;5.78;;;;;;;;;;5054261;28;20048;-78
2023/03/30 04:34:53;;;;;;;11.63;5.57;;;;;;;;;;5054042;28;20052;-78
2023/03/30 04:37:28;;;;;;;12.57;5.75;;;;;;;;;;5054534;28;20116;-78
2023/03/30 04:39:56;;;;;;;14.15;5.63;;;;;;;;;;5074203;28;20044;-78
2023/03/30 04:42:29;;;;;;;12.00;5.22;;;;;;;;;;5074668;28;20120;-78
2023/03/30 04:44:58;;;;;;;14.60;5.60;;;;;;;;;;5069035;28;20048;-78
2023/03/30 04:47:25;;;;;;;13.98;5.28;;;;;;;;;;5054171;28;20055;-78
2023/03/30 04:49:51;;;;;;;13.75;5.38;;;;;;;;;;5054241;28;20102;-78
2023/03/30 04:52:17;;;;;;;15.98;5.80;;;;;;;;;;5053658;28;20557;-78
2023/03/30 04:54:43;;;;;;;14.85;5.22;;;;;;;;;;5056396;28;20048;-77
2023/03/30 04:57:09;;;;;;;13.27;5.40;;;;;;;;;;5073721;28;20413;-77
2023/03/30 04:59:35;;;;;;;12.77;5.15;;;;;;;;;;5069712;28;20497;-77
2023/03/30 05:02:02;;;;;;;12.77;5.07;;;;;;;;;;5065762;28;20045;-77
2023/03/30 05:04:29;;;;;;;13.70;5.13;;;;;;;;;;5073711;28;20055;-77
2023/03/30 05:06:56;;;;;;;14.38;5.53;;;;;;;;;;5053988;28;20045;-77
2023/03/30 05:09:22;;;;;;;13.32;5.50;;;;;;;;;;5053366;28;20132;-78
2023/03/30 05:11:48;;;;;;;16.42;4.93;;;;;;;;;;5053294;28;20048;-78
2023/03/30 05:14:14;;;;;;;13.63;5.70;;;;;;;;;;5059634;28;20048;-76
2023/03/30 05:16:41;;;;;;;14.07;5.57;;;;;;;;;;5056233;28;20045;-77
2023/03/30 05:19:07;;;;;;;18.90;5.65;;;;;;;;;;5057774;28;20049;-76
2023/03/30 05:21:37;;;;;;;13.98;5.10;;;;;;;;;;5073306;28;20407;-77
2023/03/30 05:24:04;;;;;;;14.80;4.78;;;;;;;;;;5056421;28;20486;-77
2023/03/30 05:26:30;;;;;;;14.57;4.90;;;;;;;;;;5071894;28;20501;-77
2023/03/30 05:28:56;;;;;;;14.73;5.53;;;;;;;;;;5073388;28;20056;-77
2023/03/30 05:31:22;;;;;;;17.23;5.35;;;;;;;;;;5073105;28;20076;-77
2023/03/30 05:33:50;;;;;;;11.68;4.80;;;;;;;;;;5055533;28;20527;-77
2023/03/30 05:36:16;;;;;;;15.75;5.10;;;;;;;;;;5073392;28;20099;-77
2023/03/30 05:38:42;;;;;;;15.27;5.32;;;;;;;;;;5073357;28;20048;-77
2023/03/30 05:41:14;;;;;;;13.25;4.68;;;;;;;;;;5073342;28;20049;-77
2023/03/30 05:43:40;;;;;;;16.73;5.28;;;;;;;;;;5073676;28;20123;-77
2023/03/30 05:46:06;;;;;;;11.68;4.22;;;;;;;;;;5072741;28;20048;-77
2023/03/30 05:48:32;;;;;;;16.45;5.43;;;;;;;;;;5074273;28;20526;-77
2023/03/30 05:50:58;;;;;;;14.70;4.97;;;;;;;;;;5062025;28;20045;-79
2023/03/30 05:53:24;;;;;;;16.95;5.88;;;;;;;;;;5056804;28;20372;-82
2023/03/30 05:55:51;;;;;;;18.48;5.47;;;;;;;;;;5060555;28;20052;-78
2023/03/30 05:58:17;;;;;;;14.20;4.88;;;;;;;;;;5075946;28;20418;-78
2023/03/30 06:00:47;;;;;;;15.13;5.97;;;;;;;;;;5070451;28;20041;-79
2023/03/30 06:03:16;;;;;;;10.38;5.30;;;;;;;;;;5064443;28;20045;-79
2023/03/30 06:05:42;;;;;;;12.57;4.88;;;;;;;;;;5071053;28;20121;-78
2023/03/30 06:08:09;;;;;;;11.80;4.80;;;;;;;;;;5073508;28;20056;-78
2023/03/30 06:10:36;;;;;;;15.88;5.05;;;;;;;;;;5078695;28;20052;-79
2023/03/30 06:13:03;;;;;;;10.25;4.30;;;;;;;;;;5078388;28;20044;-77
2023/03/30 06:15:29;;;;;;;13.43;4.50;;;;;;;;;;5061644;28;20044;-79
2023/03/30 06:17:56;;;;;;;12.98;4.90;;;;;;;;;;5068202;28;20040;-77
2023/03/30 06:20:24;;;;;;;15.07;4.63;;;;;;;;;;5072792;28;20041;-77
2023/03/30 06:22:50;;;;;;;11.48;4.15;;;;;;;;;;5072880;28;20048;-77
2023/03/30 06:25:19;;;;;;;14.93;5.03;;;;;;;;;;5072748;28;20047;-77
2023/03/30 06:27:46;;;;;;;13.10;4.45;;;;;;;;;;5071478;28;20558;-77
2023/03/30 06:30:12;;;;;;;14.15;4.63;;;;;;;;;;5064353;28;20053;-78
2023/03/30 06:32:38;;;;;;;14.82;4.72;;;;;;;;;;5056500;28;20537;-77
2023/03/30 06:35:05;;;;;;;10.73;4.65;;;;;;;;;;5071972;28;20099;-78
2023/03/30 06:37:31;;;;;;;13.43;4.70;;;;;;;;;;5073321;28;20142;-81
2023/03/30 06:39:57;;;;;;;14.98;4.53;;;;;;;;;;5060682;28;20041;-77
2023/03/30 06:42:26;;;;;;;10.60;4.60;;;;;;;;;;5056727;28;20041;-77
2023/03/30 06:44:52;;;;;;;12.98;4.38;;;;;;;;;;5075908;28;20041;-77
2023/03/30 06:47:19;;;;;;;12.73;5.00;;;;;;;;;;5080733;28;20490;-77
2023/03/30 06:49:45;;;;;;;14.18;4.75;;;;;;;;;;5077412;28;20047;-78
2023/03/30 06:52:12;;;;;;;13.23;4.82;;;;;;;;;;5076283;28;20037;-78
2023/03/30 06:54:38;;;;;;;15.23;4.97;;;;;;;;;;5076460;28;20048;-77
2023/03/30 06:57:04;;;;;;;14.23;4.78;;;;;;;;;;5075842;28;20053;-77
2023/03/30 06:59:31;;;;;;;15.98;4.40;;;;;;;;;;5076134;28;20040;-77
2023/03/30 07:01:58;;;;;;;16.00;4.50;;;;;;;;;;5075823;28;20059;-77
2023/03/30 07:04:24;;;;;;;15.27;5.10;;;;;;;;;;5058406;28;20049;-77
2023/03/30 07:06:51;;;;;;;14.77;4.82;;;;;;;;;;5068667;28;20044;-78
2023/03/30 07:09:17;;;;;;;13.90;4.28;;;;;;;;;;5075537;28;20186;-77
2023/03/30 07:11:43;;;;;;;21.58;4.45;;;;;;;;;;5076465;28;20048;-78
2023/03/30 07:14:11;;;;;;;11.13;4.03;;;;;;;;;;5079160;28;20517;-78
2023/03/30 07:16:37;;;;;;;17.45;4.80;;;;;;;;;;5069135;28;20506;-79
2023/03/30 07:26:04;;;;;;;17.23;4.53;;;;;;;;;;5043915;28;20112;-77
2023/03/30 07:28:30;;;;;;;15.65;4.20;;;;;;;;;;5035821;28;20053;-77
2023/03/30 07:31:04;;;;;;;11.93;4.07;;;;;;;;;;5035334;28;20126;-77
2023/03/30 07:33:30;;;;;;;16.33;3.80;;;;;;;;;;5035818;28;20140;-77
2023/03/30 07:35:56;;;;;;;18.23;5.20;;;;;;;;;;5035459;28;20492;-77
2023/03/30 07:38:23;;;;;;;10.93;4.38;;;;;;;;;;5057609;28;20103;-78
2023/03/30 07:40:49;;;;;;;15.85;5.05;;;;;;;;;;5055029;28;20106;-78
2023/03/30 07:43:15;;;;;;;16.73;5.18;;;;;;;;;;5048405;28;20077;-78
2023/03/30 07:45:41;;;;;;;20.40;5.07;;;;;;;;;;5038097;28;20394;-78
2023/03/30 07:48:07;;;;;;;16.67;4.40;;;;;;;;;;5054938;28;20052;-78
2023/03/30 07:50:33;;;;;;;20.23;4.85;;;;;;;;;;5054977;28;20045;-78
2023/03/30 07:52:59;;;;;;;19.90;4.65;;;;;;;;;;5054970;28;20049;-78
2023/03/30 07:55:27;;;;;;;17.20;4.47;;;;;;;;;;5054801;28;20048;-78
2023/03/30 07:57:54;;;;;;;18.75;4.95;;;;;;;;;;5054769;28;20051;-78
2023/03/30 08:00:21;;;;;;;18.92;4.47;;;;;;;;;;5047734;28;20086;-78
2023/03/30 08:02:47;;;;;;;19.77;5.30;;;;;;;;;;5034465;28;20546;-78
2023/03/30 08:05:14;;;;;;;17.48;5.30;;;;;;;;;;5033621;28;20052;-78
2023/03/30 08:07:40;;;;;;;23.10;5.18;;;;;;;;;;5035020;28;20483;-78
2023/03/30 08:10:07;;;;;;;18.45;4.80;;;;;;;;;;5034564;28;20049;-78
2023/03/30 08:12:33;;;;;;;18.63;4.93;;;;;;;;;;5034469;28;20050;-78
2023/03/30 08:15:00;;;;;;;26.42;5.78;;;;;;;;;;5034589;28;20042;-78
2023/03/30 08:17:26;;;;;;;22.58;5.68;;;;;;;;;;5038656;28;20532;-78
2023/03/30 08:19:52;;;;;;;18.73;5.47;;;;;;;;;;5053801;28;20376;-78
2023/03/30 08:22:18;;;;;;;24.15;5.03;;;;;;;;;;5054282;28;20048;-77
2023/03/30 08:24:44;;;;;;;20.38;5.15;;;;;;;;;;5052850;28;20056;-78
2023/03/30 08:27:10;;;;;;;24.40;5.10;;;;;;;;;;5054359;28;20049;-77
2023/03/30 08:29:36;;;;;;;21.75;5.57;;;;;;;;;;5054270;28;20052;-77
2023/03/30 08:32:02;;;;;;;24.73;5.90;;;;;;;;;;5053956;28;20040;-77
2023/03/30 08:34:28;;;;;;;17.25;4.78;;;;;;;;;;5054098;28;20041;-77
2023/03/30 08:36:56;;;;;;;21.00;5.07;;;;;;;;;;5054103;28;20044;-78
2023/03/30 08:39:23;;;;;;;21.40;4.97;;;;;;;;;;5054730;28;20080;-78
2023/03/30 08:41:59;;;;;;;22.83;5.75;;;;;;;;;;5038732;28;20099;-78
2023/03/30 08:44:31;;;;;;;25.08;5.45;;;;;;;;;;5034193;28;20038;-78
2023/03/30 08:46:58;;;;;;;21.70;5.00;;;;;;;;;;5050515;28;20406;-78
2023/03/30 08:49:25;;;;;;;21.58;4.40;;;;;;;;;;5036733;28;20056;-78
2023/03/30 08:51:53;;;;;;;24.33;5.07;;;;;;;;;;5033554;28;20049;-77
2023/03/30 08:54:20;;;;;;;20.05;4.85;;;;;;;;;;5034739;28;20045;-78
2023/03/30 08:56:58;;;;;;;18.42;4.35;;;;;;;;;;5033938;28;20116;-78
2023/03/30 08:59:32;;;;;;;14.68;3.95;;;;;;;;;;5035025;28;20053;-79
2023/03/30 09:02:03;;;;;;;17.27;5.05;;;;;;;;;;5034179;28;20052;-78
2023/03/30 09:04:32;;;;;;;14.57;3.85;;;;;;;;;;5045887;28;20060;-78
2023/03/30 09:07:17;;;;;;;18.02;4.68;;;;;;;;;;5053484;28;20395;-77
2023/03/30 09:09:44;;;;;;;18.33;4.32;;;;;;;;;;5053177;28;20048;-78
2023/03/30 09:12:16;;;;;;;11.55;3.80;;;;;;;;;;5035933;28;20472;-77
2023/03/30 09:14:44;;;;;;;20.75;4.40;;;;;;;;;;5047405;28;20487;-78
2023/03/30 09:17:11;;;;;;;12.52;3.90;;;;;;;;;;5054954;28;20468;-79
2023/03/30 09:20:00;;;;;;;15.68;4.35;;;;;;;;;;5043418;28;20549;-79
2023/03/30 09:22:32;;;;;;;15.05;4.00;;;;;;;;;;5038427;28;20080;-78
2023/03/30 09:25:00;;;;;;;16.38;3.83;;;;;;;;;;5036986;28;20128;-79
2023/03/30 09:27:32;;;;;;;16.75;4.35;;;;;;;;;;5042542;28;20053;-79
2023/03/30 09:30:03;;;;;;;14.23;3.75;;;;;;;;;;5035586;28;20049;-79
2023/03/30 09:32:36;;;;;;;19.50;4.60;;;;;;;;;;5063400;28;20044;-79
2023/03/30 09:35:06;;;;;;;20.95;3.92;;;;;;;;;;5076663;28;20048;-82
2023/03/30 09:37:34;;;;;;;14.90;4.43;;;;;;;;;;5073954;28;20060;-78
2023/03/30 09:40:02;;;;;;;17.88;4.57;;;;;;;;;;5073414;28;20128;-77
2023/03/30 09:42:37;;;;;;;15.10;3.47;;;;;;;;;;5074818;28;20048;-78
2023/03/30 09:45:35;;;;;;;17.50;4.30;;;;;;;;;;5074047;28;20044;-79
2023/03/30 09:48:08;;;;;;;13.95;3.83;;;;;;;;;;5041489;28;20487;-78
2023/03/30 09:50:41;;;;;;;15.63;3.90;;;;;;;;;;5050168;28;20498;-78
2023/03/30 09:53:19;;;;;;;13.93;3.63;;;;;;;;;;5039656;28;20092;-79
2023/03/30 09:56:15;;;;;;;12.50;3.80;;;;;;;;;;5042650;28;20049;-79
2023/03/30 09:58:41;;;;;;;15.52;3.63;;;;;;;;;;5029797;28;20046;-78
2023/03/30 10:01:11;;;;;;;13.90;3.42;;;;;;;;;;5033649;28;20574;-79
2023/03/30 10:03:37;;;;;;;14.63;4.28;;;;;;;;;;5033330;28;20053;-77
2023/03/30 10:06:07;;;;;;;17.75;4.00;;;;;;;;;;5036440;28;20045;-77
2023/03/30 10:08:37;;;;;;;12.60;4.35;;;;;;;;;;5036840;28;20073;-78
2023/03/30 10:11:05;;;;;;;21.50;4.40;;;;;;;;;;5036723;28;20072;-77
2023/03/30 10:13:51;;;;;;;17.70;4.25;;;;;;;;;;5036914;28;20068;-78
2023/03/30 10:16:35;;;;;;;21.13;4.55;;;;;;;;;;5036404;28;20049;-77
2023/03/30 10:19:02;;;;;;;10.73;4.13;;;;;;;;;;5036768;28;20121;-77
2023/03/30 10:21:30;;;;;;;17.42;5.00;;;;;;;;;;5036450;28;20566;-77
2023/03/30 10:24:03;;;;;;;16.20;4.32;;;;;;;;;;5036775;28;20041;-77
2023/03/30 10:26:29;;;;;;;15.60;4.22;;;;;;;;;;5039802;28;20045;-83
2023/03/30 10:28:56;;;;;;;16.90;4.43;;;;;;;;;;5037145;28;20045;-79
2023/03/30 10:31:23;;;;;;;16.40;4.78;;;;;;;;;;5038800;28;20080;-79
2023/03/30 10:33:49;;;;;;;21.65;4.85;;;;;;;;;;5043057;28;20487;-77
2023/03/30 10:36:16;;;;;;;16.13;4.28;;;;;;;;;;5036580;28;20052;-78
2023/03/30 10:38:43;;;;;;;20.02;4.80;;;;;;;;;;5035641;28;20099;-78
2023/03/30 10:41:10;;;;;;;25.75;5.85;;;;;;;;;;5036460;28;20049;-78
2023/03/30 10:43:37;;;;;;;27.30;5.40;;;;;;;;;;5036801;28;20071;-77
2023/03/30 10:46:12;;;;;;;24.02;5.07;;;;;;;;;;5036389;28;20087;-79
2023/03/30 10:48:53;;;;;;;21.10;5.35;;;;;;;;;;5034828;28;20064;-77
2023/03/30 10:51:35;;;;;;;20.23;5.13;;;;;;;;;;5036102;28;20053;-77
2023/03/30 10:54:16;;;;;;;19.83;4.97;;;;;;;;;;5036424;28;20045;-79
2023/03/30 10:56:47;;;;;;;20.05;4.63;;;;;;;;;;5037121;28;20048;-79
2023/03/30 10:59:26;;;;;;;17.33;4.88;;;;;;;;;;5038759;28;20127;-79
2023/03/30 11:02:11;;;;;;;19.55;4.65;;;;;;;;;;5038754;28;20045;-79
2023/03/30 11:04:42;;;;;;;21.33;5.00;;;;;;;;;;5039515;28;20396;-79
2023/03/30 11:07:12;;;;;;;17.58;5.50;;;;;;;;;;5043209;28;20068;-79
2023/03/30 11:09:40;;;;;;;19.55;5.32;;;;;;;;;;5038496;28;20176;-79
2023/03/30 11:12:10;;;;;;;14.38;4.85;;;;;;;;;;5040507;28;20128;-79
2023/03/30 11:14:54;;;;;;;25.23;5.38;;;;;;;;;;5039704;28;20480;-79
2023/03/30 11:17:30;;;;;;;17.98;4.70;;;;;;;;;;5055242;28;20044;-79
2023/03/30 11:19:59;;;;;;;22.35;5.60;;;;;;;;;;5039554;28;20164;-79
2023/03/30 11:22:45;;;;;;;19.38;4.45;;;;;;;;;;5020523;28;20169;-79
2023/03/30 11:25:20;;;;;;;20.15;5.05;;;;;;;;;;5039285;28;20417;-79
2023/03/30 11:27:52;;;;;;;25.10;5.72;;;;;;;;;;5038534;28;20045;-79
2023/03/30 11:30:21;;;;;;;25.05;6.00;;;;;;;;;;5038629;28;20049;-78
2023/03/30 11:32:50;;;;;;;21.33;5.07;;;;;;;;;;5037285;28;20049;-79
2023/03/30 11:35:30;;;;;;;24.67;5.20;;;;;;;;;;5042701;28;20479;-79
2023/03/30 11:37:59;;;;;;;19.30;4.97;;;;;;;;;;5045307;28;20052;-78
2023/03/30 11:40:34;;;;;;;25.50;5.75;;;;;;;;;;5045779;28;20097;-78
2023/03/30 11:43:00;;;;;;;22.17;5.88;;;;;;;;;;5046364;28;20072;-78
2023/03/30 11:45:38;;;;;;;18.05;4.93;;;;;;;;;;5046395;28;20049;-78
2023/03/30 11:48:04;;;;;;;18.40;4.88;;;;;;;;;;5045617;28;20052;-78
2023/03/30 11:50:30;;;;;;;18.73;4.75;;;;;;;;;;5054311;28;20496;-78
2023/03/30 11:52:59;;;;;;;20.92;5.63;;;;;;;;;;5066674;28;20395;-78
2023/03/30 11:55:44;;;;;;;24.30;6.03;;;;;;;;;;5066049;28;20053;-78
2023/03/30 11:58:17;;;;;;;24.00;6.22;;;;;;;;;;5063995;28;20048;-79
2023/03/30 12:00:52;;;;;;;19.80;5.90;;;;;;;;;;5066408;28;20505;-78
2023/03/30 12:03:34;;;;;;;17.87;5.50;;;;;;;;;;5064980;28;20375;-78
2023/03/30 12:06:10;;;;;;;26.02;6.20;;;;;;;;;;5064400;28;21007;-79
2023/03/30 12:08:48;;;;;;;18.45;5.35;;;;;;;;;;5045757;28;20096;-79
2023/03/30 12:11:26;;;;;;;17.10;5.70;;;;;;;;;;5045351;28;20522;-79
2023/03/30 12:13:53;;;;;;;15.27;4.80;;;;;;;;;;5045731;28;20069;-79
2023/03/30 12:16:23;;;;;;;22.42;5.85;;;;;;;;;;5045069;28;20042;-79
2023/03/30 12:18:49;;;;;;;20.10;5.38;;;;;;;;;;5045391;28;20046;-79
2023/03/30 12:21:27;;;;;;;19.73;5.30;;;;;;;;;;5041824;28;20042;-79
2023/03/30 12:23:55;;;;;;;22.77;5.93;;;;;;;;;;5049349;28;20045;-80
2023/03/30 12:26:28;;;;;;;24.08;5.93;;;;;;;;;;5044568;28;20068;-80
2023/03/30 12:29:08;;;;;;;22.85;5.47;;;;;;;;;;5050999;28;20372;-80
2023/03/30 12:31:54;;;;;;;23.35;5.38;;;;;;;;;;5043204;28;20103;-79
2023/03/30 12:34:20;;;;;;;;;;;;;;;;;;5041892;28;20056;-79
2023/03/30 12:36:54;;;;;;;21.80;5.90;;;;;;;;;;5042771;28;19921;-79
2023/03/30 12:39:29;;;;;;;20.48;5.38;;;;;;;;;;5051613;28;20048;-79
2023/03/30 12:42:07;;;;;;;24.48;6.65;;;;;;;;;;5062823;28;20045;-79
2023/03/30 12:44:54;;;;;;;25.05;6.05;;;;;;;;;;5059679;28;20429;-79
2023/03/30 12:47:22;;;;;;;;;;;;;;;;;;5049940;28;20085;-78
2023/03/30 12:49:57;;;;;;;19.95;4.60;;;;;;;;;;5041703;28;19977;-79
2023/03/30 12:52:26;;;;;;;22.98;5.40;;;;;;;;;;5053007;28;20040;-79
2023/03/30 12:55:07;;;;;;;22.40;5.68;;;;;;;;;;5056832;28;20640;-79
2023/03/30 12:57:33;;;;;;;21.33;6.50;;;;;;;;;;5040562;28;20092;-79
2023/03/30 13:00:06;;;;;;;24.45;6.03;;;;;;;;;;5035791;28;20042;-79
2023/03/30 13:02:58;;;;;;;21.50;5.80;;;;;;;;;;5055737;28;20079;-78
2023/03/30 13:05:56;;;;;;;18.05;5.28;;;;;;;;;;5067584;28;20060;-78
2023/03/30 13:08:34;;;;;;;25.55;5.88;;;;;;;;;;5061017;28;20061;-79
2023/03/30 13:11:13;;;;;;;22.30;4.63;;;;;;;;;;5049248;28;20080;-78
2023/03/30 13:14:14;;;;;;;24.30;5.47;;;;;;;;;;5038182;28;20468;-78
2023/03/30 13:16:47;;;;;;;25.20;6.55;;;;;;;;;;5037158;28;20049;-78
2023/03/30 13:19:20;;;;;;;19.85;4.97;;;;;;;;;;5048853;28;20125;-78
2023/03/30 13:21:48;;;;;;;24.58;5.50;;;;;;;;;;5056870;28;20094;-79
2023/03/30 13:24:34;;;;;;;20.63;5.30;;;;;;;;;;5056801;28;20076;-79
2023/03/30 13:27:13;;;;;;;24.23;5.35;;;;;;;;;;5056102;28;20495;-78
2023/03/30 13:29:39;;;;;;;29.50;6.13;;;;;;;;;;5056530;28;20041;-78
2023/03/30 13:32:15;;;;;;;20.98;5.63;;;;;;;;;;5057246;28;20106;-78
2023/03/30 13:34:41;;;;;;;;;;;;;;;;;;5034220;28;20050;-78
2023/03/30 13:37:10;;;;;;;20.95;6.28;;;;;;;;;;5037951;28;19927;-79
2023/03/30 13:39:38;;;;;;;23.42;5.85;;;;;;;;;;5055231;28;20142;-78
2023/03/30 13:42:12;;;;;;;26.88;6.70;;;;;;;;;;5062259;28;20091;-79
2023/03/30 13:44:47;;;;;;;25.33;5.88;;;;;;;;;;5060875;28;20490;-78
2023/03/30 13:47:13;;;;;;;27.05;6.57;;;;;;;;;;5045293;28;20042;-78
2023/03/30 13:49:41;;;;;;;26.58;6.43;;;;;;;;;;5053534;28;20080;-78
2023/03/30 13:52:12;;;;;;;22.63;5.97;;;;;;;;;;5057667;28;20048;-79
2023/03/30 13:54:40;;;;;;;26.17;6.18;;;;;;;;;;5062310;28;20053;-79
2023/03/30 13:57:09;;;;;;;27.25;5.63;;;;;;;;;;5058079;28;20048;-78
2023/03/30 13:59:36;;;;;;;27.15;6.53;;;;;;;;;;5046134;28;20055;-78
2023/03/30 14:02:02;;;;;;;25.73;6.55;;;;;;;;;;5037345;28;20045;-78
2023/03/30 14:04:32;;;;;;;22.63;5.75;;;;;;;;;;5038460;28;20056;-79
2023/03/30 14:07:04;;;;;;;25.55;5.57;;;;;;;;;;5042964;28;20049;-79
2023/03/30 14:09:30;;;;;;;27.25;5.85;;;;;;;;;;5052779;28;20482;-79
2023/03/30 14:11:58;;;;;;;27.05;6.05;;;;;;;;;;5057987;28;20052;-78
2023/03/30 14:14:48;;;;;;;23.40;5.97;;;;;;;;;;5055447;28;20535;-77
2023/03/30 14:17:18;;;;;;;24.48;5.25;;;;;;;;;;5057196;28;20044;-77
2023/03/30 14:20:04;;;;;;;25.90;5.85;;;;;;;;;;5057385;28;20044;-80
2023/03/30 14:22:32;;;;;;;26.73;6.90;;;;;;;;;;5050198;28;20089;-79
2023/03/30 14:24:59;;;;;;;22.67;5.53;;;;;;;;;;5057995;28;20041;-78
2023/03/30 14:27:25;;;;;;;25.73;6.60;;;;;;;;;;5045553;28;20069;-79
2023/03/30 14:29:53;;;;;;;25.08;6.55;;;;;;;;;;5040614;28;20076;-80
2023/03/30 14:32:22;;;;;;;23.80;5.57;;;;;;;;;;5051591;28;20495;-79
2023/03/30 14:34:49;;;;;;;26.77;6.05;;;;;;;;;;5057885;28;20053;-78
2023/03/30 14:37:15;;;;;;;25.70;6.10;;;;;;;;;;5056551;28;20041;-78
2023/03/30 14:39:43;;;;;;;23.80;5.65;;;;;;;;;;5037294;28;20045;-77
2023/03/30 14:42:15;;;;;;;26.05;6.43;;;;;;;;;;5036462;28;20045;-78
2023/03/30 14:44:44;;;;;;;24.08;5.78;;;;;;;;;;5039811;28;20049;-77
2023/03/30 14:47:14;;;;;;;25.75;6.43;;;;;;;;;;5047643;28;20041;-77
2023/03/30 14:49:46;;;;;;;26.52;6.18;;;;;;;;;;5052095;28;20068;-78
2023/03/30 14:52:15;;;;;;;27.77;6.35;;;;;;;;;;5039373;28;20056;-77
2023/03/30 14:54:41;;;;;;;26.90;6.50;;;;;;;;;;5051905;28;20442;-77
2023/03/30 14:57:08;;;;;;;25.48;5.72;;;;;;;;;;5038022;28;20038;-77
2023/03/30 14:59:46;;;;;;;28.30;6.05;;;;;;;;;;5035389;28;20103;-77
2023/03/30 15:02:30;;;;;;;26.17;6.57;;;;;;;;;;5039133;28;20056;-77